| time (UTC) | temp F | wind direction | speed MPH | gust MPH | rain 1hr in | rain 24hr in | rain mn in | humidity % | barometer mb |
| 20260509201500 | 53 | 235 | 0.0 | 0.0 | 0.00 | 0.00 | 0.00 | 72 | 1030.0 |
| 20260509200958 | 53 | 207 | 0.0 | 0.0 | 0.00 | 0.00 | 0.00 | 69 | 1029.9 |
| 20260509200452 | 54 | 215 | 0.0 | 0.0 | 0.00 | 0.00 | 0.00 | 67 | 1030.0 |
| 20260509195949 | 55 | 215 | 0.0 | 0.0 | 0.00 | 0.00 | 0.00 | 65 | 1030.3 |
| 20260509195445 | 56 | 199 | 0.0 | 0.0 | 0.00 | 0.00 | 0.00 | 60 | 1030.5 |
| 20260509194944 | 56 | 58 | 0.0 | 0.0 | 0.00 | 0.00 | 0.00 | 60 | 1030.4 |
| 20260509194440 | 56 | 45 | 1.0 | 1.0 | 0.00 | 0.00 | 0.00 | 59 | 1030.4 |
| 20260509193937 | 56 | 224 | 1.0 | 1.0 | 0.00 | 0.00 | 0.00 | 60 | 1030.4 |
| 20260509193437 | 56 | 169 | 0.0 | 0.0 | 0.00 | 0.00 | 0.00 | 60 | 1030.5 |
| 20260509192933 | 56 | 40 | 1.0 | 1.0 | 0.00 | 0.00 | 0.00 | 59 | 1030.5 |
| 20260509192430 | 56 | 255 | 0.0 | 0.0 | 0.00 | 0.00 | 0.00 | 62 | 1030.5 |
| 20260509191925 | 56 | 212 | 0.0 | 0.0 | 0.00 | 0.00 | 0.00 | 59 | 1030.5 |
| 20260509191420 | 56 | 289 | 0.0 | 0.0 | 0.00 | 0.00 | 0.00 | 60 | 1030.4 |
| 20260509190917 | 57 | 299 | 1.0 | 1.0 | 0.00 | 0.00 | 0.00 | 60 | 1030.6 |
| 20260509190414 | 56 | 272 | 0.0 | 1.0 | 0.00 | 0.00 | 0.00 | 61 | 1030.7 |
| 20260509185912 | 56 | 261 | 0.0 | 1.0 | 0.00 | 0.00 | 0.00 | 61 | 1030.4 |
| 20260509185409 | 56 | 246 | 0.0 | 0.0 | 0.00 | 0.00 | 0.00 | 60 | 1030.5 |
| 20260509184905 | 57 | 277 | 1.0 | 1.0 | 0.00 | 0.00 | 0.00 | 60 | 1030.7 |
| 20260509184402 | 57 | 4 | 1.0 | 1.0 | 0.00 | 0.00 | 0.00 | 59 | 1030.8 |
| 20260509183859 | 57 | 8 | 0.0 | 1.0 | 0.00 | 0.00 | 0.00 | 59 | 1030.6 |
| 20260509183354 | 57 | 33 | 1.0 | 2.0 | 0.00 | 0.00 | 0.00 | 58 | 1030.6 |
| 20260509182850 | 57 | 7 | 2.0 | 2.0 | 0.00 | 0.00 | 0.00 | 58 | 1030.6 |
| 20260509182347 | 57 | 15 | 1.0 | 2.0 | 0.00 | 0.00 | 0.00 | 57 | 1030.5 |
| 20260509181845 | 57 | 29 | 1.0 | 1.0 | 0.00 | 0.00 | 0.00 | 57 | 1030.6 |
| 20260509181342 | 57 | 355 | 1.0 | 1.0 | 0.00 | 0.00 | 0.00 | 58 | 1030.5 |
| 20260509180839 | 56 | 23 | 1.0 | 2.0 | 0.00 | 0.00 | 0.00 | 60 | 1030.6 |
| 20260509180335 | 56 | 40 | 1.0 | 2.0 | 0.00 | 0.00 | 0.00 | 61 | 1030.4 |
| 20260509175832 | 57 | 355 | 1.0 | 2.0 | 0.00 | 0.00 | 0.00 | 60 | 1030.5 |
| 20260509175328 | 57 | 25 | 1.0 | 2.0 | 0.00 | 0.00 | 0.00 | 59 | 1030.4 |
| 20260509174824 | 57 | 57 | 1.0 | 1.0 | 0.00 | 0.00 | 0.00 | 57 | 1030.1 |
| 20260509174320 | 57 | 197 | 0.0 | 0.0 | 0.00 | 0.00 | 0.00 | 61 | 1030.3 |
| 20260509173816 | 57 | 198 | 0.0 | 0.0 | 0.00 | 0.00 | 0.00 | 61 | 1030.3 |
| 20260509173312 | 57 | 246 | 0.0 | 0.0 | 0.00 | 0.00 | 0.00 | 59 | 1030.3 |
| 20260509172808 | 58 | 251 | 0.0 | 0.0 | 0.00 | 0.00 | 0.00 | 61 | 1030.4 |
| 20260509172306 | 58 | 251 | 0.0 | 0.0 | 0.00 | 0.00 | 0.00 | 57 | 1030.1 |
| 20260509171800 | 59 | 227 | 0.0 | 0.0 | 0.00 | 0.00 | 0.00 | 57 | 1030.3 |
| 20260509171251 | 60 | 253 | 0.0 | 0.0 | 0.00 | 0.00 | 0.00 | 52 | 1030.1 |
| 20260509170747 | 60 | 248 | 0.0 | 1.0 | 0.00 | 0.00 | 0.00 | 52 | 1030.1 |
| 20260509170243 | 60 | 256 | 1.0 | 1.0 | 0.00 | 0.00 | 0.00 | 51 | 1030.3 |
| 20260509165742 | 60 | 334 | 0.0 | 1.0 | 0.00 | 0.00 | 0.00 | 51 | 1030.0 |
| 20260509165238 | 60 | 318 | 2.0 | 2.0 | 0.00 | 0.00 | 0.00 | 51 | 1030.1 |
| 20260509164734 | 60 | 326 | 0.0 | 1.0 | 0.00 | 0.00 | 0.00 | 51 | 1030.0 |
| 20260509164229 | 60 | 266 | 0.0 | 1.0 | 0.00 | 0.00 | 0.00 | 51 | 1030.0 |
| 20260509163727 | 61 | 273 | 1.0 | 1.0 | 0.00 | 0.00 | 0.00 | 50 | 1029.8 |
| 20260509163223 | 61 | 288 | 1.0 | 1.0 | 0.00 | 0.00 | 0.00 | 49 | 1029.9 |
| 20260509162721 | 62 | 252 | 0.0 | 0.0 | 0.00 | 0.00 | 0.00 | 50 | 1030.0 |
| 20260509162216 | 62 | 44 | 0.0 | 0.0 | 0.00 | 0.00 | 0.00 | 48 | 1029.7 |
| 20260509161712 | 62 | 31 | 1.0 | 1.0 | 0.00 | 0.00 | 0.00 | 48 | 1029.9 |
| 20260509161209 | 62 | 3 | 1.0 | 1.0 | 0.00 | 0.00 | 0.00 | 48 | 1029.8 |
| 20260509160704 | 62 | 293 | 1.0 | 1.0 | 0.00 | 0.00 | 0.00 | 49 | 1029.8 |
| 20260509160200 | 62 | 298 | 1.0 | 1.0 | 0.00 | 0.00 | 0.00 | 48 | 1029.7 |
| 20260509155656 | 62 | 277 | 0.0 | 0.0 | 0.00 | 0.00 | 0.00 | 50 | 1029.6 |
| 20260509155152 | 62 | 303 | 1.0 | 2.0 | 0.00 | 0.00 | 0.00 | 48 | 1029.9 |
| 20260509154648 | 62 | 298 | 1.0 | 1.0 | 0.00 | 0.00 | 0.00 | 48 | 1029.7 |
| 20260509154146 | 62 | 276 | 1.0 | 1.0 | 0.00 | 0.00 | 0.00 | 48 | 1029.6 |
| 20260509153642 | 62 | 286 | 1.0 | 1.0 | 0.00 | 0.00 | 0.00 | 48 | 1029.6 |
| 20260509153139 | 63 | 312 | 2.0 | 2.0 | 0.00 | 0.00 | 0.00 | 47 | 1029.7 |
| 20260509152634 | 63 | 347 | 2.0 | 2.0 | 0.00 | 0.00 | 0.00 | 47 | 1029.7 |
| 20260509152132 | 64 | 343 | 3.0 | 3.0 | 0.00 | 0.00 | 0.00 | 47 | 1029.8 |
| 20260509151628 | 64 | 346 | 3.0 | 4.0 | 0.00 | 0.00 | 0.00 | 46 | 1029.6 |
| 20260509151126 | 66 | 330 | 2.0 | 3.0 | 0.00 | 0.00 | 0.00 | 44 | 1029.6 |
| 20260509150624 | 66 | 347 | 4.0 | 4.0 | 0.00 | 0.00 | 0.00 | 43 | 1029.4 |
| 20260509150122 | 65 | 313 | 1.0 | 2.0 | 0.00 | 0.00 | 0.00 | 43 | 1029.4 |
| 20260509145617 | 65 | 309 | 1.0 | 2.0 | 0.00 | 0.00 | 0.00 | 42 | 1029.6 |
| 20260509145112 | 66 | 348 | 6.0 | 8.0 | 0.00 | 0.00 | 0.00 | 41 | 1029.4 |
| 20260509144610 | 66 | 341 | 2.0 | 3.0 | 0.00 | 0.00 | 0.00 | 42 | 1029.6 |
| 20260509144107 | 67 | 353 | 4.0 | 6.0 | 0.00 | 0.00 | 0.00 | 41 | 1029.4 |
| 20260509143604 | 67 | 312 | 2.0 | 3.0 | 0.00 | 0.00 | 0.00 | 41 | 1029.6 |
| 20260509143102 | 68 | 4 | 3.0 | 4.0 | 0.00 | 0.00 | 0.00 | 40 | 1029.4 |
| 20260509142556 | 68 | 350 | 4.0 | 4.0 | 0.00 | 0.00 | 0.00 | 39 | 1029.8 |
| 20260509142053 | 68 | 300 | 3.0 | 4.0 | 0.00 | 0.00 | 0.00 | 38 | 1029.4 |
| 20260509141549 | 68 | 338 | 4.0 | 6.0 | 0.00 | 0.00 | 0.00 | 38 | 1029.4 |
| 20260509141046 | 69 | 341 | 4.0 | 6.0 | 0.00 | 0.00 | 0.00 | 37 | 1029.6 |
| 20260509140543 | 69 | 348 | 4.0 | 4.0 | 0.00 | 0.00 | 0.00 | 36 | 1029.4 |
| 20260509140041 | 69 | 49 | 3.0 | 4.0 | 0.00 | 0.00 | 0.00 | 36 | 1029.4 |
| 20260509135538 | 69 | 341 | 6.0 | 11.0 | 0.00 | 0.00 | 0.00 | 36 | 1029.6 |
| 20260509135035 | 69 | 314 | 5.0 | 8.0 | 0.00 | 0.00 | 0.00 | 35 | 1029.8 |
| 20260509134526 | 68 | 5 | 6.0 | 7.0 | 0.00 | 0.00 | 0.00 | 36 | 1029.8 |
| 20260509134024 | 69 | 357 | 4.0 | 6.0 | 0.00 | 0.00 | 0.00 | 35 | 1029.4 |
| 20260509133520 | 70 | 350 | 6.0 | 10.0 | 0.00 | 0.00 | 0.00 | 35 | 1029.6 |
| 20260509133018 | 69 | 1 | 2.0 | 3.0 | 0.00 | 0.00 | 0.00 | 35 | 1029.8 |
| 20260509132516 | 69 | 343 | 4.0 | 7.0 | 0.00 | 0.00 | 0.00 | 35 | 1029.6 |
| 20260509132014 | 69 | 330 | 2.0 | 4.0 | 0.00 | 0.00 | 0.00 | 36 | 1029.7 |
| 20260509131510 | 69 | 318 | 4.0 | 4.0 | 0.00 | 0.00 | 0.00 | 35 | 1029.7 |
| 20260509131007 | 69 | 339 | 6.0 | 9.0 | 0.00 | 0.00 | 0.00 | 35 | 1029.6 |
| 20260509130502 | 69 | 43 | 7.0 | 9.0 | 0.00 | 0.00 | 0.00 | 34 | 1029.7 |
| 20260509130000 | 69 | 64 | 6.0 | 8.0 | 0.00 | 0.00 | 0.00 | 35 | 1029.6 |
| 20260509125456 | 69 | 324 | 6.0 | 8.0 | 0.00 | 0.00 | 0.00 | 36 | 1029.8 |
| 20260509124952 | 69 | 340 | 4.0 | 6.0 | 0.00 | 0.00 | 0.00 | 36 | 1029.9 |
| 20260509124449 | 68 | 340 | 10.0 | 13.0 | 0.00 | 0.00 | 0.00 | 36 | 1029.7 |
| 20260509123946 | 68 | 324 | 8.0 | 10.0 | 0.00 | 0.00 | 0.00 | 37 | 1029.9 |
| 20260509123444 | 69 | 20 | 5.0 | 7.0 | 0.00 | 0.00 | 0.00 | 36 | 1030.0 |
| 20260509122939 | 69 | 349 | 8.0 | 10.0 | 0.00 | 0.00 | 0.00 | 37 | 1029.9 |
| 20260509122437 | 68 | 351 | 4.0 | 7.0 | 0.00 | 0.00 | 0.00 | 37 | 1029.8 |
| 20260509121933 | 68 | 308 | 3.0 | 3.0 | 0.00 | 0.00 | 0.00 | 37 | 1029.8 |
| 20260509121430 | 68 | 325 | 6.0 | 7.0 | 0.00 | 0.00 | 0.00 | 37 | 1029.9 |
| 20260509120928 | 69 | 20 | 1.0 | 1.0 | 0.00 | 0.00 | 0.00 | 36 | 1030.1 |
| 20260509120426 | 69 | 19 | 4.0 | 7.0 | 0.00 | 0.00 | 0.00 | 36 | 1029.9 |
| 20260509115924 | 69 | 38 | 5.0 | 7.0 | 0.00 | 0.00 | 0.00 | 36 | 1030.3 |
| 20260509115421 | 68 | 335 | 7.0 | 8.0 | 0.00 | 0.00 | 0.00 | 36 | 1030.5 |
| 20260509114918 | 68 | 324 | 4.0 | 7.0 | 0.00 | 0.00 | 0.00 | 37 | 1030.4 |
| 20260509114416 | 68 | 16 | 6.0 | 8.0 | 0.00 | 0.00 | 0.00 | 37 | 1030.4 |
| 20260509113910 | 68 | 322 | 4.0 | 6.0 | 0.00 | 0.00 | 0.00 | 36 | 1030.4 |
| 20260509113407 | 69 | 346 | 5.0 | 6.0 | 0.00 | 0.00 | 0.00 | 35 | 1030.5 |
| 20260509112904 | 68 | 341 | 5.0 | 7.0 | 0.00 | 0.00 | 0.00 | 35 | 1030.7 |
| 20260509112401 | 68 | 6 | 3.0 | 3.0 | 0.00 | 0.00 | 0.00 | 36 | 1030.4 |
| 20260509111858 | 68 | 326 | 6.0 | 9.0 | 0.00 | 0.00 | 0.00 | 35 | 1030.4 |
| 20260509111354 | 68 | 173 | 5.0 | 8.0 | 0.00 | 0.00 | 0.00 | 35 | 1030.4 |
| 20260509110853 | 67 | 333 | 6.0 | 7.0 | 0.00 | 0.00 | 0.00 | 36 | 1030.7 |
| 20260509110348 | 68 | 358 | 6.0 | 8.0 | 0.00 | 0.00 | 0.00 | 37 | 1030.7 |
| 20260509105847 | 68 | 16 | 2.0 | 4.0 | 0.00 | 0.00 | 0.00 | 37 | 1030.8 |
| 20260509105345 | 68 | 308 | 4.0 | 4.0 | 0.00 | 0.00 | 0.00 | 36 | 1031.1 |
| 20260509104841 | 67 | 295 | 6.0 | 9.0 | 0.00 | 0.00 | 0.00 | 37 | 1030.8 |
| 20260509104337 | 67 | 357 | 3.0 | 3.0 | 0.00 | 0.00 | 0.00 | 38 | 1031.2 |
| 20260509103836 | 66 | 11 | 5.0 | 7.0 | 0.00 | 0.00 | 0.00 | 39 | 1031.3 |
| 20260509103333 | 66 | 1 | 7.0 | 10.0 | 0.00 | 0.00 | 0.00 | 38 | 1031.3 |
| 20260509102831 | 67 | 328 | 4.0 | 4.0 | 0.00 | 0.00 | 0.00 | 39 | 1031.5 |
| 20260509102328 | 66 | 323 | 4.0 | 8.0 | 0.00 | 0.00 | 0.00 | 40 | 1031.4 |
| 20260509101824 | 66 | 324 | 2.0 | 3.0 | 0.00 | 0.00 | 0.00 | 39 | 1031.4 |
| 20260509101320 | 67 | 14 | 2.0 | 2.0 | 0.00 | 0.00 | 0.00 | 40 | 1031.8 |
| 20260509100818 | 67 | 222 | 1.0 | 1.0 | 0.00 | 0.00 | 0.00 | 39 | 1031.6 |
| 20260509100315 | 65 | 232 | 1.0 | 2.0 | 0.00 | 0.00 | 0.00 | 42 | 1031.9 |
| 20260509095812 | 64 | 4 | 3.0 | 3.0 | 0.00 | 0.00 | 0.00 | 42 | 1032.1 |
| 20260509095309 | 65 | 2 | 8.0 | 9.0 | 0.00 | 0.00 | 0.00 | 41 | 1032.2 |
| 20260509094806 | 65 | 355 | 2.0 | 4.0 | 0.00 | 0.00 | 0.00 | 41 | 1032.2 |
| 20260509094303 | 64 | 346 | 3.0 | 7.0 | 0.00 | 0.00 | 0.00 | 41 | 1032.5 |
| 20260509093801 | 64 | 354 | 3.0 | 4.0 | 0.00 | 0.00 | 0.00 | 42 | 1032.5 |
| 20260509093257 | 64 | 37 | 6.0 | 8.0 | 0.00 | 0.00 | 0.00 | 41 | 1032.6 |
| 20260509092756 | 64 | 32 | 5.0 | 8.0 | 0.00 | 0.00 | 0.00 | 42 | 1032.8 |
| 20260509092254 | 63 | 20 | 5.0 | 7.0 | 0.00 | 0.00 | 0.00 | 43 | 1032.7 |
| 20260509091751 | 63 | 1 | 5.0 | 7.0 | 0.00 | 0.00 | 0.00 | 42 | 1032.7 |
| 20260509091248 | 63 | 13 | 5.0 | 6.0 | 0.00 | 0.00 | 0.00 | 43 | 1032.7 |
| 20260509090745 | 61 | 4 | 4.0 | 7.0 | 0.00 | 0.00 | 0.00 | 44 | 1032.8 |
| 20260509090242 | 62 | 17 | 6.0 | 9.0 | 0.00 | 0.00 | 0.00 | 43 | 1033.0 |
| 20260509085740 | 62 | 341 | 4.0 | 6.0 | 0.00 | 0.00 | 0.00 | 42 | 1032.8 |
| 20260509085237 | 62 | 14 | 4.0 | 7.0 | 0.00 | 0.00 | 0.00 | 43 | 1032.9 |
| 20260509084733 | 62 | 350 | 7.0 | 9.0 | 0.00 | 0.00 | 0.00 | 43 | 1033.0 |
| 20260509084230 | 61 | 28 | 8.0 | 10.0 | 0.00 | 0.00 | 0.00 | 45 | 1033.0 |
| 20260509083728 | 61 | 14 | 3.0 | 3.0 | 0.00 | 0.00 | 0.00 | 45 | 1033.4 |
| 20260509083225 | 60 | 6 | 4.0 | 6.0 | 0.00 | 0.00 | 0.00 | 46 | 1033.0 |
| 20260509082721 | 60 | 340 | 6.0 | 10.0 | 0.00 | 0.00 | 0.00 | 47 | 1033.4 |
| 20260509082218 | 60 | 355 | 4.0 | 4.0 | 0.00 | 0.00 | 0.00 | 48 | 1033.0 |
| 20260509081715 | 60 | 33 | 4.0 | 4.0 | 0.00 | 0.00 | 0.00 | 48 | 1032.9 |
| 20260509081212 | 60 | 357 | 6.0 | 8.0 | 0.00 | 0.00 | 0.00 | 48 | 1033.1 |
| 20260509080710 | 59 | 342 | 5.0 | 7.0 | 0.00 | 0.00 | 0.00 | 48 | 1033.3 |
| 20260509080208 | 59 | 2 | 4.0 | 4.0 | 0.00 | 0.00 | 0.00 | 49 | 1033.1 |
| 20260509075706 | 58 | 358 | 5.0 | 7.0 | 0.00 | 0.00 | 0.00 | 49 | 1033.5 |
| 20260509075203 | 59 | 355 | 6.0 | 8.0 | 0.00 | 0.00 | 0.00 | 49 | 1033.3 |
| 20260509074700 | 58 | 10 | 5.0 | 6.0 | 0.00 | 0.00 | 0.00 | 49 | 1033.6 |
| 20260509074156 | 57 | 347 | 3.0 | 4.0 | 0.00 | 0.00 | 0.00 | 51 | 1033.4 |
| 20260509073653 | 57 | 32 | 6.0 | 8.0 | 0.00 | 0.00 | 0.00 | 52 | 1033.3 |
| 20260509073149 | 57 | 340 | 3.0 | 4.0 | 0.00 | 0.00 | 0.00 | 54 | 1033.4 |
| 20260509072646 | 56 | 40 | 5.0 | 6.0 | 0.00 | 0.00 | 0.00 | 55 | 1033.3 |
| 20260509072143 | 56 | 319 | 4.0 | 4.0 | 0.00 | 0.00 | 0.00 | 56 | 1033.4 |
| 20260509071640 | 56 | 34 | 2.0 | 2.0 | 0.00 | 0.00 | 0.00 | 56 | 1033.3 |
| 20260509071137 | 56 | 20 | 2.0 | 2.0 | 0.00 | 0.00 | 0.00 | 57 | 1033.0 |
| 20260509070634 | 56 | 12 | 5.0 | 6.0 | 0.00 | 0.00 | 0.00 | 57 | 1033.1 |
| 20260509070130 | 56 | 25 | 5.0 | 7.0 | 0.00 | 0.00 | 0.00 | 56 | 1032.8 |
| 20260509065625 | 56 | 22 | 4.0 | 6.0 | 0.00 | 0.00 | 0.00 | 56 | 1032.8 |
| 20260509065116 | 56 | 34 | 4.0 | 4.0 | 0.00 | 0.00 | 0.00 | 56 | 1032.9 |
| 20260509064614 | 56 | 30 | 2.0 | 2.0 | 0.00 | 0.00 | 0.00 | 63 | 1032.6 |
| 20260509064112 | 56 | 214 | 1.0 | 1.0 | 0.00 | 0.00 | 0.00 | 61 | 1032.3 |
| 20260509063608 | 56 | 1 | 1.0 | 2.0 | 0.00 | 0.00 | 0.00 | 60 | 1032.3 |
| 20260509063105 | 55 | 48 | 3.0 | 4.0 | 0.00 | 0.00 | 0.00 | 62 | 1032.2 |
| 20260509062602 | 53 | 192 | 0.0 | 0.0 | 0.00 | 0.00 | 0.00 | 65 | 1032.2 |
| 20260509062059 | 52 | 208 | 0.0 | 0.0 | 0.00 | 0.00 | 0.00 | 66 | 1032.0 |
| 20260509061556 | 52 | 196 | 1.0 | 1.0 | 0.00 | 0.00 | 0.00 | 67 | 1032.2 |
| 20260509061053 | 51 | 215 | 0.0 | 1.0 | 0.00 | 0.00 | 0.00 | 67 | 1032.3 |
| 20260509060551 | 50 | 229 | 0.0 | 0.0 | 0.00 | 0.00 | 0.00 | 69 | 1032.1 |
| 20260509060046 | 50 | 180 | 1.0 | 1.0 | 0.00 | 0.00 | 0.00 | 70 | 1032.2 |
| 20260509055542 | 49 | 195 | 1.0 | 1.0 | 0.00 | 0.00 | 0.00 | 71 | 1032.1 |
| 20260509055038 | 49 | 180 | 1.0 | 2.0 | 0.00 | 0.00 | 0.00 | 72 | 1032.1 |
| 20260509054535 | 49 | 213 | 0.0 | 0.0 | 0.00 | 0.00 | 0.00 | 72 | 1032.0 |
| 20260509054033 | 49 | 220 | 1.0 | 1.0 | 0.00 | 0.00 | 0.00 | 73 | 1032.0 |
| 20260509053532 | 48 | 192 | 0.0 | 0.0 | 0.00 | 0.00 | 0.00 | 74 | 1031.6 |
| 20260509053028 | 48 | 216 | 0.0 | 0.0 | 0.00 | 0.00 | 0.00 | 75 | 1031.4 |
| 20260509052526 | 47 | 220 | 0.0 | 0.0 | 0.00 | 0.00 | 0.00 | 76 | 1031.3 |
| 20260509052024 | 47 | 206 | 0.0 | 0.0 | 0.00 | 0.00 | 0.00 | 77 | 1031.5 |
| 20260509051521 | 46 | 210 | 0.0 | 0.0 | 0.00 | 0.00 | 0.00 | 78 | 1031.4 |
| 20260509051012 | 45 | 205 | 0.0 | 1.0 | 0.00 | 0.00 | 0.00 | 80 | 1031.3 |
| 20260509050509 | 44 | 207 | 0.0 | 0.0 | 0.00 | 0.00 | 0.00 | 82 | 1031.2 |
| 20260509050006 | 43 | 211 | 0.0 | 0.0 | 0.00 | 0.00 | 0.00 | 84 | 1031.1 |
| 20260509045503 | 43 | 212 | 0.0 | 0.0 | 0.00 | 0.00 | 0.00 | 86 | 1031.1 |
| 20260509045000 | 41 | 233 | 0.0 | 0.0 | 0.00 | 0.00 | 0.00 | 89 | 1031.2 |
| 20260509044457 | 41 | 212 | 0.0 | 0.0 | 0.00 | 0.00 | 0.00 | 90 | 1031.2 |
| 20260509043954 | 40 | 221 | 0.0 | 0.0 | 0.00 | 0.00 | 0.00 | 90 | 1031.2 |
| 20260509043450 | 40 | 226 | 0.0 | 0.0 | 0.00 | 0.00 | 0.00 | 90 | 1031.2 |
| 20260509042946 | 41 | 223 | 0.0 | 0.0 | 0.00 | 0.00 | 0.00 | 90 | 1031.2 |
| 20260509042443 | 41 | 233 | 0.0 | 0.0 | 0.00 | 0.00 | 0.00 | 90 | 1031.1 |
| 20260509041939 | 40 | 223 | 0.0 | 0.0 | 0.00 | 0.00 | 0.00 | 90 | 1031.1 |
| 20260509041436 | 40 | 201 | 0.0 | 0.0 | 0.00 | 0.00 | 0.00 | 91 | 1030.8 |
| 20260509040934 | 40 | 245 | 0.0 | 0.0 | 0.00 | 0.00 | 0.00 | 91 | 1030.9 |
| 20260509040432 | 40 | 242 | 0.0 | 0.0 | 0.00 | 0.00 | 0.00 | 91 | 1030.8 |
| 20260509035928 | 40 | 232 | 0.0 | 0.0 | 0.00 | 0.00 | 0.00 | 91 | 1031.1 |
| 20260509035425 | 40 | 232 | 0.0 | 0.0 | 0.00 | 0.00 | 0.00 | 91 | 1030.9 |
| 20260509034922 | 40 | 233 | 0.0 | 0.0 | 0.00 | 0.00 | 0.00 | 91 | 1030.8 |
| 20260509034420 | 40 | 232 | 0.0 | 0.0 | 0.00 | 0.00 | 0.00 | 91 | 1030.7 |
| 20260509033917 | 40 | 233 | 0.0 | 0.0 | 0.00 | 0.00 | 0.00 | 91 | 1031.2 |
| 20260509033414 | 40 | 233 | 0.0 | 0.0 | 0.00 | 0.00 | 0.00 | 90 | 1030.8 |
| 20260509032910 | 40 | 232 | 0.0 | 0.0 | 0.00 | 0.00 | 0.00 | 90 | 1030.8 |
| 20260509032408 | 40 | 232 | 0.0 | 0.0 | 0.00 | 0.00 | 0.00 | 90 | 1030.9 |
| 20260509031906 | 40 | 232 | 0.0 | 0.0 | 0.00 | 0.00 | 0.00 | 90 | 1030.8 |
| 20260509031403 | 41 | 240 | 0.0 | 0.0 | 0.00 | 0.00 | 0.00 | 90 | 1030.7 |
| 20260509030900 | 40 | 234 | 0.0 | 0.0 | 0.00 | 0.00 | 0.00 | 91 | 1030.8 |
| 20260509030358 | 40 | 226 | 0.0 | 0.0 | 0.00 | 0.00 | 0.00 | 91 | 1030.8 |
| 20260509025855 | 40 | 230 | 0.0 | 0.0 | 0.00 | 0.00 | 0.00 | 91 | 1030.8 |
| 20260509025349 | 40 | 228 | 0.0 | 0.0 | 0.00 | 0.00 | 0.00 | 91 | 1030.8 |
| 20260509024845 | 40 | 227 | 0.0 | 0.0 | 0.00 | 0.00 | 0.00 | 91 | 1030.7 |
| 20260509024342 | 40 | 223 | 0.0 | 0.0 | 0.00 | 0.00 | 0.00 | 90 | 1030.8 |
| 20260509023839 | 41 | 228 | 0.0 | 0.0 | 0.00 | 0.00 | 0.00 | 90 | 1030.7 |
| 20260509023336 | 41 | 225 | 0.0 | 0.0 | 0.00 | 0.00 | 0.00 | 89 | 1030.7 |
| 20260509022827 | 41 | 226 | 0.0 | 0.0 | 0.00 | 0.00 | 0.00 | 89 | 1030.8 |
| 20260509022324 | 41 | 226 | 0.0 | 0.0 | 0.00 | 0.00 | 0.00 | 89 | 1030.8 |
| 20260509021821 | 41 | 225 | 0.0 | 0.0 | 0.00 | 0.00 | 0.00 | 88 | 1030.7 |
| 20260509021318 | 41 | 225 | 0.0 | 0.0 | 0.00 | 0.00 | 0.00 | 88 | 1030.8 |
| 20260509020816 | 41 | 231 | 0.0 | 0.0 | 0.00 | 0.00 | 0.00 | 88 | 1030.8 |
| 20260509020314 | 41 | 230 | 0.0 | 0.0 | 0.00 | 0.00 | 0.00 | 88 | 1031.1 |
| 20260509015811 | 41 | 225 | 0.0 | 0.0 | 0.00 | 0.00 | 0.00 | 88 | 1030.8 |
| 20260509015309 | 41 | 232 | 0.0 | 0.0 | 0.00 | 0.00 | 0.00 | 88 | 1030.9 |
| 20260509014805 | 41 | 235 | 0.0 | 0.0 | 0.00 | 0.00 | 0.00 | 88 | 1030.7 |
| 20260509014303 | 42 | 233 | 0.0 | 0.0 | 0.00 | 0.00 | 0.00 | 88 | 1030.9 |
| 20260509013759 | 42 | 228 | 0.0 | 0.0 | 0.00 | 0.00 | 0.00 | 88 | 1030.9 |
| 20260509013255 | 42 | 226 | 0.0 | 0.0 | 0.00 | 0.00 | 0.00 | 88 | 1030.9 |
| 20260509012751 | 42 | 225 | 0.0 | 0.0 | 0.00 | 0.00 | 0.00 | 88 | 1030.8 |
| 20260509012248 | 42 | 233 | 0.0 | 0.0 | 0.00 | 0.00 | 0.00 | 89 | 1030.9 |
| 20260509011745 | 42 | 227 | 0.0 | 0.0 | 0.00 | 0.00 | 0.00 | 89 | 1030.9 |
| 20260509011243 | 42 | 232 | 0.0 | 0.0 | 0.00 | 0.00 | 0.00 | 89 | 1031.1 |
| 20260509010740 | 42 | 230 | 0.0 | 0.0 | 0.00 | 0.00 | 0.00 | 89 | 1030.8 |
| 20260509010236 | 42 | 223 | 0.0 | 0.0 | 0.00 | 0.00 | 0.00 | 89 | 1030.8 |
| 20260509005734 | 42 | 225 | 0.0 | 0.0 | 0.00 | 0.00 | 0.00 | 89 | 1030.7 |
| 20260509005231 | 42 | 223 | 0.0 | 0.0 | 0.00 | 0.00 | 0.00 | 89 | 1030.8 |
| 20260509004725 | 42 | 235 | 0.0 | 0.0 | 0.00 | 0.00 | 0.00 | 89 | 1030.8 |
| 20260509004224 | 42 | 223 | 0.0 | 0.0 | 0.00 | 0.00 | 0.00 | 88 | 1030.8 |
| 20260509003722 | 42 | 220 | 0.0 | 0.0 | 0.00 | 0.00 | 0.00 | 88 | 1030.9 |
| 20260509003219 | 42 | 224 | 0.0 | 0.0 | 0.00 | 0.00 | 0.00 | 87 | 1031.1 |
| 20260509002716 | 42 | 223 | 0.0 | 0.0 | 0.00 | 0.00 | 0.00 | 87 | 1031.1 |
| 20260509002214 | 43 | 236 | 0.0 | 0.0 | 0.00 | 0.00 | 0.00 | 87 | 1031.2 |
| 20260509001711 | 43 | 225 | 0.0 | 0.0 | 0.00 | 0.00 | 0.00 | 87 | 1030.9 |
| 20260509001207 | 43 | 233 | 0.0 | 0.0 | 0.00 | 0.00 | 0.00 | 87 | 1030.9 |
| 20260509000705 | 42 | 223 | 0.0 | 0.0 | 0.00 | 0.00 | 0.00 | 86 | 1031.2 |
| 20260509000204 | 43 | 224 | 0.0 | 0.0 | 0.00 | 0.00 | 0.00 | 86 | 1030.9 |
| 20260508235658 | 43 | 219 | 0.0 | 0.0 | 0.00 | 0.00 | 0.00 | 86 | 1031.2 |
| 20260508235154 | 43 | 224 | 0.0 | 0.0 | 0.00 | 0.00 | 0.00 | 86 | 1031.1 |
| 20260508234652 | 43 | 224 | 0.0 | 0.0 | 0.00 | 0.00 | 0.00 | 86 | 1031.1 |
| 20260508234148 | 43 | 220 | 0.0 | 0.0 | 0.00 | 0.00 | 0.00 | 86 | 1031.2 |
| 20260508233643 | 43 | 222 | 0.0 | 0.0 | 0.00 | 0.00 | 0.00 | 86 | 1031.1 |
| 20260508233140 | 43 | 220 | 0.0 | 0.0 | 0.00 | 0.00 | 0.00 | 86 | 1031.2 |
| 20260508232637 | 43 | 222 | 0.0 | 0.0 | 0.00 | 0.00 | 0.00 | 86 | 1031.3 |
| 20260508232133 | 43 | 225 | 0.0 | 0.0 | 0.00 | 0.00 | 0.00 | 86 | 1030.9 |
| 20260508231631 | 43 | 219 | 0.0 | 0.0 | 0.00 | 0.00 | 0.00 | 86 | 1030.9 |
| 20260508231128 | 43 | 223 | 0.0 | 0.0 | 0.00 | 0.00 | 0.00 | 87 | 1031.1 |
| 20260508230624 | 44 | 230 | 0.0 | 0.0 | 0.00 | 0.00 | 0.00 | 87 | 1031.3 |
| 20260508230121 | 44 | 230 | 0.0 | 0.0 | 0.00 | 0.00 | 0.00 | 87 | 1030.9 |
| 20260508225619 | 44 | 227 | 0.0 | 0.0 | 0.00 | 0.00 | 0.00 | 86 | 1031.2 |
| 20260508225115 | 44 | 225 | 0.0 | 0.0 | 0.00 | 0.00 | 0.00 | 86 | 1030.9 |
| 20260508224613 | 44 | 228 | 0.0 | 0.0 | 0.00 | 0.00 | 0.00 | 86 | 1030.7 |
| 20260508224110 | 44 | 224 | 0.0 | 0.0 | 0.00 | 0.00 | 0.00 | 86 | 1031.1 |
| 20260508223608 | 44 | 232 | 0.0 | 0.0 | 0.00 | 0.00 | 0.00 | 86 | 1031.2 |
| 20260508223105 | 44 | 232 | 0.0 | 0.0 | 0.00 | 0.00 | 0.00 | 86 | 1030.9 |
| 20260508222602 | 44 | 226 | 0.0 | 0.0 | 0.00 | 0.00 | 0.00 | 86 | 1031.1 |
| 20260508222059 | 44 | 226 | 0.0 | 0.0 | 0.00 | 0.00 | 0.00 | 85 | 1031.1 |
| 20260508221555 | 44 | 223 | 0.0 | 0.0 | 0.00 | 0.00 | 0.00 | 85 | 1030.9 |
| 20260508221051 | 45 | 226 | 0.0 | 0.0 | 0.00 | 0.00 | 0.00 | 85 | 1030.9 |
| 20260508220548 | 45 | 228 | 0.0 | 0.0 | 0.00 | 0.00 | 0.00 | 84 | 1030.8 |
| 20260508220044 | 45 | 226 | 0.0 | 0.0 | 0.00 | 0.00 | 0.00 | 85 | 1030.9 |
| 20260508215541 | 45 | 228 | 0.0 | 0.0 | 0.00 | 0.00 | 0.00 | 84 | 1030.8 |
| 20260508215038 | 45 | 240 | 0.0 | 0.0 | 0.00 | 0.00 | 0.00 | 84 | 1031.2 |
| 20260508214536 | 45 | 228 | 0.0 | 0.0 | 0.00 | 0.00 | 0.00 | 84 | 1031.1 |
| 20260508214032 | 45 | 226 | 0.0 | 0.0 | 0.00 | 0.00 | 0.00 | 83 | 1030.9 |
| 20260508213529 | 45 | 224 | 0.0 | 0.0 | 0.00 | 0.00 | 0.00 | 83 | 1031.2 |
| 20260508213025 | 45 | 232 | 0.0 | 0.0 | 0.00 | 0.00 | 0.00 | 83 | 1031.2 |
| 20260508212521 | 45 | 221 | 0.0 | 0.0 | 0.00 | 0.00 | 0.00 | 83 | 1031.2 |
| 20260508212018 | 45 | 224 | 0.0 | 0.0 | 0.00 | 0.00 | 0.00 | 84 | 1031.2 |
| 20260508211513 | 45 | 224 | 0.0 | 0.0 | 0.00 | 0.00 | 0.00 | 85 | 1031.2 |
| 20260508211009 | 45 | 223 | 0.0 | 0.0 | 0.00 | 0.00 | 0.00 | 85 | 1031.4 |
| 20260508210501 | 45 | 219 | 0.0 | 0.0 | 0.00 | 0.00 | 0.00 | 84 | 1031.5 |
| 20260508205957 | 45 | 220 | 0.0 | 0.0 | 0.00 | 0.00 | 0.00 | 85 | 1031.3 |
| 20260508205455 | 45 | 221 | 0.0 | 0.0 | 0.00 | 0.00 | 0.00 | 85 | 1031.3 |
| 20260508204951 | 45 | 221 | 0.0 | 0.0 | 0.00 | 0.00 | 0.00 | 84 | 1031.3 |
| 20260508204448 | 46 | 221 | 0.0 | 0.0 | 0.00 | 0.00 | 0.00 | 83 | 1031.4 |
| 20260508203943 | 46 | 220 | 0.0 | 0.0 | 0.00 | 0.00 | 0.00 | 82 | 1031.5 |
| 20260508203440 | 46 | 221 | 0.0 | 0.0 | 0.00 | 0.00 | 0.00 | 82 | 1031.6 |
| 20260508202936 | 46 | 221 | 0.0 | 0.0 | 0.00 | 0.00 | 0.00 | 82 | 1031.6 |
| 20260508202433 | 45 | 221 | 0.0 | 0.0 | 0.00 | 0.00 | 0.00 | 82 | 1031.5 |
| 20260508201930 | 46 | 221 | 0.0 | 0.0 | 0.00 | 0.00 | 0.00 | 80 | 1031.5 |